Time;durP1;ratioP1;P1;durP2;ratioP2;P2;SDS_P1;SDS_P2;PMS_P1;PMS_P2;Temp;Humidity;BMP_temperature;BMP_pressure;BME280_temperature;BME280_humidity;BME280_pressure;Samples;Min_cycle;Max_cycle;Signal;HPM_P1;HPM_P2
2022/04/18 00:02:18;;;;;;;15.10;12.80;;;;;;;;;;5072616;28;20040;-27
2022/04/18 00:04:44;;;;;;;14.80;12.98;;;;;;;;;;5072523;28;20112;-29
2022/04/18 00:07:10;;;;;;;15.93;13.10;;;;;;;;;;5055861;28;20044;-29
2022/04/18 00:09:37;;;;;;;17.13;13.60;;;;;;;;;;5069554;28;20045;-30
2022/04/18 00:12:03;;;;;;;16.70;12.95;;;;;;;;;;5070602;28;20047;-29
2022/04/18 00:14:30;;;;;;;15.20;12.82;;;;;;;;;;5070922;28;20044;-29
2022/04/18 00:16:56;;;;;;;15.70;13.63;;;;;;;;;;5071538;28;20040;-31
2022/04/18 00:19:23;;;;;;;15.95;13.75;;;;;;;;;;5052565;28;20044;-28
2022/04/18 00:21:49;;;;;;;17.98;13.48;;;;;;;;;;5071106;28;20166;-30
2022/04/18 00:24:17;;;;;;;16.05;13.05;;;;;;;;;;5070494;28;20409;-32
2022/04/18 00:26:43;;;;;;;16.05;14.18;;;;;;;;;;5071085;28;20044;-27
2022/04/18 00:29:09;;;;;;;17.80;14.75;;;;;;;;;;5070726;28;20037;-28
2022/04/18 00:31:35;;;;;;;16.15;14.20;;;;;;;;;;5070887;28;20490;-28
2022/04/18 00:34:01;;;;;;;16.60;13.63;;;;;;;;;;5070529;28;20379;-29
2022/04/18 00:36:27;;;;;;;17.90;15.07;;;;;;;;;;5070950;28;20044;-29
2022/04/18 00:38:53;;;;;;;17.45;14.60;;;;;;;;;;5070548;28;20093;-29
2022/04/18 00:41:19;;;;;;;17.80;14.65;;;;;;;;;;5070626;28;20040;-33
2022/04/18 00:43:47;;;;;;;16.67;14.65;;;;;;;;;;5070896;28;20044;-29
2022/04/18 00:46:14;;;;;;;16.90;14.98;;;;;;;;;;5052979;28;20040;-29
2022/04/18 00:48:41;;;;;;;17.80;14.38;;;;;;;;;;5069505;28;20047;-31
2022/04/18 00:51:14;;;;;;;15.63;14.10;;;;;;;;;;5071024;28;20040;-29
2022/04/18 00:53:42;;;;;;;16.30;13.88;;;;;;;;;;5069797;28;20032;-30
2022/04/18 00:56:08;;;;;;;16.08;13.60;;;;;;;;;;5070568;28;20397;-29
2022/04/18 00:58:35;;;;;;;15.27;13.05;;;;;;;;;;5071284;28;20085;-26
2022/04/18 01:01:01;;;;;;;15.00;13.32;;;;;;;;;;5071283;28;20098;-27
2022/04/18 01:03:30;;;;;;;16.42;13.32;;;;;;;;;;5073104;28;20403;-27
2022/04/18 01:06:00;;;;;;;17.25;14.20;;;;;;;;;;5075399;28;20045;-28
2022/04/18 01:08:26;;;;;;;17.70;13.50;;;;;;;;;;5075095;28;20102;-26
2022/04/18 01:10:53;;;;;;;17.63;14.32;;;;;;;;;;5072572;28;20119;-27
2022/04/18 01:13:19;;;;;;;15.85;14.15;;;;;;;;;;5055188;28;20044;-26
2022/04/18 01:15:45;;;;;;;17.70;14.80;;;;;;;;;;5069099;28;20040;-27
2022/04/18 01:18:11;;;;;;;18.48;14.48;;;;;;;;;;5074464;28;20033;-29
2022/04/18 01:20:37;;;;;;;19.50;15.52;;;;;;;;;;5074429;28;20040;-27
2022/04/18 01:23:06;;;;;;;18.40;16.23;;;;;;;;;;5074286;28;20048;-26
2022/04/18 01:31:01;;;;;;;20.33;16.98;;;;;;;;;;5073957;28;20047;-27
2022/04/18 01:33:28;;;;;;;19.55;16.23;;;;;;;;;;5074422;28;20093;-26
2022/04/18 01:35:54;;;;;;;20.77;16.40;;;;;;;;;;5073922;28;20123;-26
2022/04/18 01:38:20;;;;;;;20.42;16.92;;;;;;;;;;5074046;28;20123;-26
2022/04/18 01:40:46;;;;;;;19.67;16.45;;;;;;;;;;5074190;28;20072;-26
2022/04/18 01:43:12;;;;;;;21.90;17.67;;;;;;;;;;5074582;28;20505;-26
2022/04/18 01:45:38;;;;;;;22.05;17.17;;;;;;;;;;5075012;28;20074;-27
2022/04/18 01:48:04;;;;;;;23.02;17.88;;;;;;;;;;5075003;28;20032;-27
2022/04/18 01:50:30;;;;;;;19.42;17.33;;;;;;;;;;5074747;28;20326;-26
2022/04/18 01:52:57;;;;;;;18.20;16.30;;;;;;;;;;5074864;28;20041;-27
2022/04/18 01:55:23;;;;;;;22.00;18.13;;;;;;;;;;5076012;28;20083;-26
2022/04/18 01:57:49;;;;;;;21.58;17.67;;;;;;;;;;5075211;28;20044;-28
2022/04/18 02:00:15;;;;;;;19.55;16.77;;;;;;;;;;5074119;28;20045;-26
2022/04/18 02:02:41;;;;;;;20.23;17.90;;;;;;;;;;5074018;28;20048;-28
2022/04/18 02:05:08;;;;;;;24.33;18.38;;;;;;;;;;5073762;28;20042;-27
2022/04/18 02:07:34;;;;;;;23.92;17.92;;;;;;;;;;5074408;28;20072;-27
2022/04/18 02:10:00;;;;;;;21.42;17.73;;;;;;;;;;5073883;28;20573;-27
2022/04/18 02:12:26;;;;;;;24.58;17.90;;;;;;;;;;5074269;28;20040;-26
2022/04/18 02:14:52;;;;;;;21.10;16.73;;;;;;;;;;5073171;28;20040;-27
2022/04/18 02:17:18;;;;;;;22.33;17.95;;;;;;;;;;5073892;28;20417;-27
2022/04/18 02:19:45;;;;;;;23.58;17.38;;;;;;;;;;5073232;28;20067;-27
2022/04/18 02:22:12;;;;;;;21.63;17.48;;;;;;;;;;5073834;28;20056;-26
2022/04/18 02:24:39;;;;;;;26.48;17.95;;;;;;;;;;5073604;28;20117;-29
2022/04/18 02:27:06;;;;;;;24.13;18.55;;;;;;;;;;5073593;28;20115;-26
2022/04/18 02:29:32;;;;;;;24.38;18.77;;;;;;;;;;5073634;28;20047;-26
2022/04/18 02:34:43;;;;;;;25.73;18.77;;;;;;;;;;5073270;28;20051;-27
2022/04/18 02:37:10;;;;;;;24.58;19.70;;;;;;;;;;5073146;28;20048;-28
2022/04/18 02:39:36;;;;;;;22.52;19.08;;;;;;;;;;5073378;28;20041;-26
2022/04/18 02:42:02;;;;;;;23.70;19.33;;;;;;;;;;5073028;28;20040;-28
2022/04/18 02:44:28;;;;;;;23.70;19.90;;;;;;;;;;5073254;28;20120;-26
2022/04/18 02:46:55;;;;;;;24.05;19.27;;;;;;;;;;5072926;28;20101;-26
2022/04/18 02:49:21;;;;;;;23.27;19.45;;;;;;;;;;5073221;28;20044;-26
2022/04/18 02:51:47;;;;;;;23.73;19.08;;;;;;;;;;5072978;28;20552;-25
2022/04/18 02:54:13;;;;;;;22.00;18.60;;;;;;;;;;5073398;28;20043;-27
2022/04/18 02:56:39;;;;;;;23.73;19.77;;;;;;;;;;5072839;28;20495;-27
2022/04/18 02:59:05;;;;;;;24.23;18.92;;;;;;;;;;5073010;28;20456;-27
2022/04/18 03:01:31;;;;;;;25.60;18.88;;;;;;;;;;5072419;28;20045;-28
2022/04/18 03:03:57;;;;;;;26.52;20.00;;;;;;;;;;5072866;28;20045;-26
2022/04/18 03:06:23;;;;;;;24.48;19.65;;;;;;;;;;5072681;28;20071;-26
2022/04/18 03:08:49;;;;;;;25.40;19.80;;;;;;;;;;5073046;28;20047;-25
2022/04/18 03:11:15;;;;;;;22.58;18.50;;;;;;;;;;5072371;28;20119;-26
2022/04/18 03:13:44;;;;;;;23.42;19.42;;;;;;;;;;5072506;28;20401;-26
2022/04/18 03:16:10;;;;;;;23.98;19.55;;;;;;;;;;5071025;28;20083;-28
2022/04/18 03:18:37;;;;;;;20.65;18.08;;;;;;;;;;5072584;28;20499;-26
2022/04/18 03:21:03;;;;;;;25.77;19.60;;;;;;;;;;5072243;28;20126;-28
2022/04/18 03:23:29;;;;;;;24.48;19.52;;;;;;;;;;5072591;28;20091;-27
2022/04/18 03:25:57;;;;;;;26.58;20.27;;;;;;;;;;5072712;28;20120;-26
2022/04/18 03:28:23;;;;;;;25.50;19.25;;;;;;;;;;5072619;28;20409;-27
2022/04/18 03:30:49;;;;;;;24.02;19.25;;;;;;;;;;5072230;28;20119;-26
2022/04/18 03:33:15;;;;;;;23.77;18.65;;;;;;;;;;5072424;28;20422;-26
2022/04/18 03:39:50;;;;;;;22.23;18.50;;;;;;;;;;5072663;28;20486;-28
2022/04/18 03:41:13;;;;;;;23.80;19.35;;;;;;;;;;5052009;28;20053;-27
2022/04/18 03:43:38;;;;;;;26.17;19.40;;;;;;;;;;5052611;28;20487;-26
2022/04/18 03:46:05;;;;;;;25.17;20.00;;;;;;;;;;5055104;28;20045;-27
2022/04/18 03:48:31;;;;;;;22.38;18.70;;;;;;;;;;5055742;28;20084;-28
2022/04/18 03:50:57;;;;;;;25.13;20.05;;;;;;;;;;5072483;28;20041;-26
2022/04/18 03:53:23;;;;;;;25.05;19.90;;;;;;;;;;5071857;28;20044;-26
2022/04/18 03:55:49;;;;;;;28.63;20.23;;;;;;;;;;5071740;28;20041;-27
2022/04/18 03:58:15;;;;;;;27.58;20.52;;;;;;;;;;5053251;28;20049;-26
2022/04/18 04:00:45;;;;;;;25.40;19.50;;;;;;;;;;5051700;28;20037;-27
2022/04/18 04:03:11;;;;;;;23.80;20.58;;;;;;;;;;5068640;28;20040;-28
2022/04/18 04:05:38;;;;;;;27.00;19.77;;;;;;;;;;5072015;28;20036;-27
2022/04/18 04:08:04;;;;;;;26.50;19.73;;;;;;;;;;5071458;28;20089;-27
2022/04/18 04:10:31;;;;;;;29.10;20.35;;;;;;;;;;5071859;28;20040;-29
2022/04/18 04:12:57;;;;;;;24.02;18.88;;;;;;;;;;5071514;28;20044;-27
2022/04/18 04:15:23;;;;;;;24.73;19.20;;;;;;;;;;5071806;28;20386;-29
2022/04/18 04:17:49;;;;;;;22.20;17.55;;;;;;;;;;5053139;28;20032;-27
2022/04/18 04:20:15;;;;;;;22.83;17.55;;;;;;;;;;5071467;28;20087;-27
2022/04/18 04:22:45;;;;;;;23.08;18.25;;;;;;;;;;5070800;28;20036;-27
2022/04/18 04:25:11;;;;;;;24.25;18.15;;;;;;;;;;5071809;28;20068;-27
2022/04/18 04:27:37;;;;;;;22.00;18.67;;;;;;;;;;5071119;28;20033;-28
2022/04/18 04:30:04;;;;;;;21.95;16.52;;;;;;;;;;5071086;28;20516;-26
2022/04/18 04:32:30;;;;;;;21.95;17.50;;;;;;;;;;5070960;28;20098;-27
2022/04/18 04:34:56;;;;;;;19.80;16.60;;;;;;;;;;5071569;28;20382;-27
2022/04/18 04:37:22;;;;;;;20.83;16.70;;;;;;;;;;5070625;28;20041;-27
2022/04/18 04:39:48;;;;;;;21.38;18.05;;;;;;;;;;5071145;28;20102;-27
2022/04/18 04:42:15;;;;;;;22.38;17.27;;;;;;;;;;5071321;28;20050;-27
2022/04/18 04:44:41;;;;;;;24.15;18.15;;;;;;;;;;5070819;28;20041;-28
2022/04/18 04:47:07;;;;;;;26.02;17.45;;;;;;;;;;5071130;28;20098;-27
2022/04/18 04:49:33;;;;;;;20.98;17.17;;;;;;;;;;5070997;28;20051;-26
2022/04/18 04:51:59;;;;;;;21.20;16.35;;;;;;;;;;5070850;28;20045;-27
2022/04/18 04:54:25;;;;;;;19.55;16.98;;;;;;;;;;5070834;28;20051;-26
2022/04/18 04:56:51;;;;;;;21.70;17.83;;;;;;;;;;5071128;28;20056;-26
2022/04/18 04:59:17;;;;;;;21.50;16.98;;;;;;;;;;5070613;28;20056;-26
2022/04/18 05:01:43;;;;;;;23.40;16.92;;;;;;;;;;5070728;28;20068;-26
2022/04/18 05:04:09;;;;;;;18.13;15.98;;;;;;;;;;5070582;28;20077;-28
2022/04/18 05:06:35;;;;;;;21.15;16.30;;;;;;;;;;5070036;28;20094;-26
2022/04/18 05:09:02;;;;;;;20.40;16.50;;;;;;;;;;5060149;28;20076;-26
2022/04/18 05:11:28;;;;;;;19.17;16.00;;;;;;;;;;5058851;28;20041;-26
2022/04/18 05:13:54;;;;;;;20.05;15.80;;;;;;;;;;5065454;28;20401;-27
2022/04/18 05:16:21;;;;;;;19.33;15.73;;;;;;;;;;5046465;28;20443;-28
2022/04/18 05:18:47;;;;;;;18.60;15.77;;;;;;;;;;5060522;28;20505;-28
2022/04/18 05:21:13;;;;;;;20.60;15.05;;;;;;;;;;5067201;28;20107;-31
2022/04/18 05:23:40;;;;;;;17.50;15.60;;;;;;;;;;5055992;28;20098;-28
2022/04/18 05:26:06;;;;;;;20.05;15.50;;;;;;;;;;5070686;28;20036;-29
2022/04/18 05:28:32;;;;;;;19.23;15.77;;;;;;;;;;5070621;28;20454;-28
2022/04/18 05:30:58;;;;;;;18.75;15.45;;;;;;;;;;5070518;28;20041;-29
2022/04/18 05:33:24;;;;;;;20.02;15.43;;;;;;;;;;5069765;28;20048;-28
2022/04/18 05:35:51;;;;;;;18.92;15.63;;;;;;;;;;5071176;28;20119;-29
2022/04/18 05:38:17;;;;;;;17.05;15.25;;;;;;;;;;5071779;28;20049;-29
2022/04/18 05:40:43;;;;;;;18.17;15.98;;;;;;;;;;5071135;28;20062;-27
2022/04/18 05:43:09;;;;;;;18.55;15.00;;;;;;;;;;5070102;28;20505;-27
2022/04/18 05:45:37;;;;;;;20.80;15.82;;;;;;;;;;5070470;28;20040;-27
2022/04/18 05:48:03;;;;;;;19.17;15.65;;;;;;;;;;5070319;28;20489;-28
2022/04/18 05:50:30;;;;;;;17.80;14.52;;;;;;;;;;5049473;28;20047;-27
2022/04/18 05:52:56;;;;;;;19.02;15.65;;;;;;;;;;5056966;28;20118;-27
2022/04/18 05:55:22;;;;;;;19.05;14.10;;;;;;;;;;5060058;28;20064;-26
2022/04/18 05:57:49;;;;;;;18.98;15.23;;;;;;;;;;5042830;28;20123;-27
2022/04/18 06:00:16;;;;;;;18.70;14.55;;;;;;;;;;5040572;28;20055;-28
2022/04/18 06:02:42;;;;;;;17.05;15.00;;;;;;;;;;5066114;28;20454;-28
2022/04/18 06:05:09;;;;;;;17.10;14.00;;;;;;;;;;5073585;28;20033;-30
2022/04/18 06:07:35;;;;;;;18.23;14.23;;;;;;;;;;5074077;28;20075;-28
2022/04/18 06:10:03;;;;;;;16.33;13.75;;;;;;;;;;5073013;28;20090;-28
2022/04/18 06:12:30;;;;;;;16.75;13.80;;;;;;;;;;5074071;28;20467;-26
2022/04/18 06:14:56;;;;;;;16.48;13.77;;;;;;;;;;5060747;28;20052;-26
2022/04/18 06:17:22;;;;;;;15.48;13.93;;;;;;;;;;5068925;28;20098;-27
2022/04/18 06:19:49;;;;;;;17.85;13.85;;;;;;;;;;5073416;28;20093;-27
2022/04/18 06:22:16;;;;;;;16.40;14.00;;;;;;;;;;5050367;28;20039;-27
2022/04/18 06:24:42;;;;;;;16.60;14.27;;;;;;;;;;5061215;28;20109;-27
2022/04/18 06:27:09;;;;;;;15.68;13.32;;;;;;;;;;5066882;28;20044;-29
2022/04/18 06:29:36;;;;;;;16.98;13.57;;;;;;;;;;5062621;28;20032;-29
2022/04/18 06:32:02;;;;;;;14.63;13.18;;;;;;;;;;5066069;28;20041;-26
2022/04/18 06:34:30;;;;;;;16.77;13.52;;;;;;;;;;5071401;28;20115;-26
2022/04/18 06:36:57;;;;;;;14.10;12.38;;;;;;;;;;5055894;28;20109;-26
2022/04/18 06:39:23;;;;;;;17.52;12.82;;;;;;;;;;5073072;28;20127;-28
2022/04/18 06:41:49;;;;;;;16.42;12.55;;;;;;;;;;5073187;28;20373;-27
2022/04/18 06:44:15;;;;;;;17.40;12.80;;;;;;;;;;5069069;28;20044;-27
2022/04/18 06:46:41;;;;;;;17.48;13.48;;;;;;;;;;5067055;28;20505;-27
2022/04/18 06:49:07;;;;;;;20.40;13.65;;;;;;;;;;5065526;28;20421;-27
2022/04/18 06:51:34;;;;;;;13.82;12.00;;;;;;;;;;5062380;28;20551;-26
2022/04/18 06:54:00;;;;;;;15.30;12.32;;;;;;;;;;5073732;28;20379;-35
2022/04/18 06:59:11;;;;;;;15.25;12.23;;;;;;;;;;5069291;28;20044;-26
2022/04/18 07:01:37;;;;;;;13.13;11.38;;;;;;;;;;5060183;28;20035;-27
2022/04/18 07:04:03;;;;;;;13.55;11.93;;;;;;;;;;5064629;28;20108;-27
2022/04/18 07:06:29;;;;;;;15.43;12.55;;;;;;;;;;5067277;28;20090;-26
2022/04/18 07:08:55;;;;;;;17.08;12.88;;;;;;;;;;5060625;28;20040;-29
2022/04/18 07:11:21;;;;;;;15.98;12.07;;;;;;;;;;5057925;28;20113;-31
2022/04/18 07:13:48;;;;;;;16.17;12.65;;;;;;;;;;5062032;28;20712;-30
2022/04/18 07:16:14;;;;;;;20.55;13.70;;;;;;;;;;5063158;28;20072;-28
2022/04/18 07:18:40;;;;;;;19.50;14.48;;;;;;;;;;5059828;28;20044;-29
2022/04/18 07:21:06;;;;;;;21.02;15.18;;;;;;;;;;5065738;28;20036;-29
2022/04/18 07:23:32;;;;;;;19.20;14.43;;;;;;;;;;5062959;28;20033;-31
2022/04/18 07:25:58;;;;;;;14.68;13.13;;;;;;;;;;5061160;28;20502;-31
2022/04/18 07:28:24;;;;;;;16.58;13.20;;;;;;;;;;5069398;28;20047;-28
2022/04/18 07:30:50;;;;;;;14.50;12.80;;;;;;;;;;5058827;28;20040;-31
2022/04/18 07:33:16;;;;;;;15.15;12.05;;;;;;;;;;5058001;28;20068;-28
2022/04/18 07:35:42;;;;;;;12.80;11.38;;;;;;;;;;5063009;28;20051;-29
2022/04/18 07:40:54;;;;;;;14.25;11.52;;;;;;;;;;5063418;28;20045;-27
2022/04/18 07:43:21;;;;;;;13.10;10.95;;;;;;;;;;5057502;28;20028;-30
2022/04/18 07:45:48;;;;;;;12.75;11.10;;;;;;;;;;5057756;28;20439;-30
2022/04/18 07:48:14;;;;;;;12.52;11.23;;;;;;;;;;5058682;28;20044;-30
2022/04/18 07:53:24;;;;;;;13.60;10.98;;;;;;;;;;5058805;28;20059;-29
2022/04/18 07:55:50;;;;;;;14.60;10.68;;;;;;;;;;5059407;28;20051;-30
2022/04/18 07:58:16;;;;;;;12.93;10.15;;;;;;;;;;5060295;28;20144;-30
2022/04/18 08:00:43;;;;;;;12.52;10.55;;;;;;;;;;5066391;28;20036;-34
2022/04/18 08:03:09;;;;;;;11.82;10.25;;;;;;;;;;5057883;28;20064;-31
2022/04/18 08:05:35;;;;;;;11.68;10.20;;;;;;;;;;5059170;28;20044;-29
2022/04/18 08:08:01;;;;;;;11.63;10.00;;;;;;;;;;5067451;28;20041;-28
2022/04/18 08:10:28;;;;;;;11.52;9.57;;;;;;;;;;5065442;28;20059;-27
2022/04/18 08:12:55;;;;;;;11.20;9.95;;;;;;;;;;5070524;28;20036;-31
2022/04/18 08:15:21;;;;;;;12.98;10.30;;;;;;;;;;5071723;28;20044;-28
2022/04/18 08:17:47;;;;;;;13.10;10.85;;;;;;;;;;5069808;28;20051;-29
2022/04/18 08:20:13;;;;;;;11.50;10.30;;;;;;;;;;5063233;28;20046;-34
2022/04/18 08:22:40;;;;;;;11.35;9.73;;;;;;;;;;5064551;28;20037;-32
2022/04/18 08:25:07;;;;;;;11.05;9.95;;;;;;;;;;5068682;28;20040;-29
2022/04/18 08:27:33;;;;;;;12.15;10.60;;;;;;;;;;5061954;28;20498;-33
2022/04/18 08:30:00;;;;;;;11.82;9.73;;;;;;;;;;5061053;28;20192;-29
2022/04/18 08:32:26;;;;;;;14.35;10.32;;;;;;;;;;5058951;28;20069;-33
2022/04/18 08:34:54;;;;;;;18.35;13.32;;;;;;;;;;5060974;28;20041;-33
2022/04/18 08:37:20;;;;;;;13.88;11.65;;;;;;;;;;5053806;28;20047;-32
2022/04/18 08:39:46;;;;;;;10.90;9.57;;;;;;;;;;5061782;28;20040;-29
2022/04/18 08:42:13;;;;;;;12.50;9.88;;;;;;;;;;5058641;28;20211;-31
2022/04/18 08:44:39;;;;;;;10.88;8.75;;;;;;;;;;5069879;28;20044;-31
2022/04/18 08:47:06;;;;;;;9.48;8.57;;;;;;;;;;5070629;28;20037;-30
2022/04/18 08:52:45;;;;;;;9.82;8.75;;;;;;;;;;4987866;28;20046;-28
2022/04/18 08:55:11;;;;;;;10.38;8.77;;;;;;;;;;4987757;28;20126;-29
2022/04/18 08:57:37;;;;;;;9.80;8.80;;;;;;;;;;5031235;28;20049;-30
2022/04/18 09:00:04;;;;;;;9.93;8.30;;;;;;;;;;5069138;28;20250;-29
2022/04/18 09:02:30;;;;;;;10.52;8.38;;;;;;;;;;5069782;28;20040;-28
2022/04/18 09:04:56;;;;;;;10.18;8.80;;;;;;;;;;5069630;28;20051;-30
2022/04/18 09:07:23;;;;;;;13.05;8.80;;;;;;;;;;5070498;28;20032;-30
2022/04/18 09:09:54;;;;;;;9.60;8.60;;;;;;;;;;5069033;28;20048;-32
2022/04/18 09:12:20;;;;;;;9.35;8.43;;;;;;;;;;5069945;28;20051;-29
2022/04/18 09:14:48;;;;;;;9.88;8.88;;;;;;;;;;5069347;28;20475;-31
2022/04/18 09:17:27;;;;;;;9.70;8.57;;;;;;;;;;5069842;28;20422;-32
2022/04/18 09:20:10;;;;;;;11.63;8.95;;;;;;;;;;5069864;28;20044;-29
2022/04/18 09:22:41;;;;;;;9.48;8.55;;;;;;;;;;5069532;28;20039;-33
2022/04/18 09:25:13;;;;;;;9.90;8.90;;;;;;;;;;5071845;28;20502;-31
2022/04/18 09:27:39;;;;;;;8.88;7.97;;;;;;;;;;5073970;28;20102;-30
2022/04/18 09:30:06;;;;;;;8.50;7.70;;;;;;;;;;5073314;28;20041;-30
2022/04/18 09:32:32;;;;;;;9.15;8.30;;;;;;;;;;5073253;28;20051;-31
2022/04/18 09:35:03;;;;;;;9.52;8.63;;;;;;;;;;5072798;28;20117;-29
2022/04/18 09:37:30;;;;;;;10.88;8.15;;;;;;;;;;5073823;28;20047;-34
2022/04/18 09:39:56;;;;;;;9.40;8.50;;;;;;;;;;5072864;28;20181;-31
2022/04/18 09:42:23;;;;;;;9.43;8.45;;;;;;;;;;5072813;28;20402;-29
2022/04/18 09:44:49;;;;;;;9.13;8.23;;;;;;;;;;5069998;28;20049;-31
2022/04/18 09:47:16;;;;;;;8.50;7.70;;;;;;;;;;5061709;28;20099;-31
2022/04/18 09:49:42;;;;;;;7.88;7.05;;;;;;;;;;5055979;28;21461;-31
2022/04/18 09:52:11;;;;;;;8.32;7.47;;;;;;;;;;5073236;28;20071;-30
2022/04/18 09:54:52;;;;;;;7.90;6.60;;;;;;;;;;5072365;28;20044;-31
2022/04/18 09:57:23;;;;;;;9.55;7.68;;;;;;;;;;5073028;28;20040;-31
2022/04/18 09:59:50;;;;;;;8.95;8.07;;;;;;;;;;5072260;28;20045;-30
2022/04/18 10:02:17;;;;;;;7.38;6.78;;;;;;;;;;5072963;28;20048;-30
2022/04/18 10:04:43;;;;;;;7.97;6.20;;;;;;;;;;5072993;28;20036;-32
2022/04/18 10:07:10;;;;;;;5.95;5.30;;;;;;;;;;5072181;28;20036;-31
2022/04/18 10:09:39;;;;;;;5.97;5.47;;;;;;;;;;5073621;28;20512;-31
2022/04/18 10:12:05;;;;;;;6.88;5.95;;;;;;;;;;5072686;28;20044;-34
2022/04/18 10:14:31;;;;;;;6.63;6.03;;;;;;;;;;5073121;28;20107;-32
2022/04/18 10:16:59;;;;;;;6.50;5.90;;;;;;;;;;5072305;28;20573;-35
2022/04/18 10:19:44;;;;;;;5.80;5.20;;;;;;;;;;5073076;28;20045;-32
2022/04/18 10:22:28;;;;;;;6.32;5.70;;;;;;;;;;5071901;28;20047;-34
2022/04/18 10:24:56;;;;;;;6.43;5.65;;;;;;;;;;5072407;28;20036;-32
2022/04/18 10:27:23;;;;;;;7.20;5.60;;;;;;;;;;5070636;28;20037;-33
2022/04/18 10:29:53;;;;;;;6.25;5.65;;;;;;;;;;5073164;28;20383;-30
2022/04/18 10:32:24;;;;;;;6.75;5.78;;;;;;;;;;5072119;28;20064;-32
2022/04/18 10:34:51;;;;;;;6.93;6.32;;;;;;;;;;5072988;28;20040;-32
2022/04/18 10:37:17;;;;;;;7.40;6.72;;;;;;;;;;5071271;28;20429;-30
2022/04/18 10:39:43;;;;;;;5.78;5.18;;;;;;;;;;5072122;28;20048;-31
2022/04/18 10:42:20;;;;;;;5.95;5.35;;;;;;;;;;5071983;28;20036;-31
2022/04/18 10:44:57;;;;;;;5.90;5.30;;;;;;;;;;5072389;28;20107;-31
2022/04/18 10:47:23;;;;;;;6.43;5.60;;;;;;;;;;5071966;28;20052;-33
2022/04/18 10:50:09;;;;;;;7.47;5.10;;;;;;;;;;5072070;28;20044;-34
2022/04/18 10:52:35;;;;;;;6.03;5.50;;;;;;;;;;5071554;28;20048;-32
2022/04/18 10:55:01;;;;;;;6.53;5.68;;;;;;;;;;5071400;28;20047;-31
2022/04/18 10:57:27;;;;;;;6.32;5.75;;;;;;;;;;5071895;28;20051;-34
2022/04/18 10:59:54;;;;;;;5.93;5.32;;;;;;;;;;5071610;28;20036;-31
2022/04/18 11:02:37;;;;;;;5.10;4.70;;;;;;;;;;5071566;28;20047;-31
2022/04/18 11:05:03;;;;;;;5.55;4.65;;;;;;;;;;5072346;28;20047;-31
2022/04/18 11:07:38;;;;;;;4.82;4.35;;;;;;;;;;5070191;28;20486;-30
2022/04/18 11:10:18;;;;;;;5.32;4.82;;;;;;;;;;5071708;28;20052;-34
2022/04/18 11:12:44;;;;;;;5.65;5.15;;;;;;;;;;5071271;28;20083;-31
2022/04/18 11:15:10;;;;;;;5.22;4.72;;;;;;;;;;5072044;28;20051;-32
2022/04/18 11:17:41;;;;;;;6.00;5.40;;;;;;;;;;5071023;28;20402;-32
2022/04/18 11:20:29;;;;;;;6.75;5.38;;;;;;;;;;5071328;28;20040;-32
2022/04/18 11:23:13;;;;;;;5.75;5.25;;;;;;;;;;5071307;28;20036;-32
2022/04/18 11:25:58;;;;;;;5.47;5.07;;;;;;;;;;5071593;28;20496;-30
2022/04/18 11:28:31;;;;;;;5.82;5.32;;;;;;;;;;5071631;28;20044;-32
2022/04/18 11:30:57;;;;;;;5.95;5.45;;;;;;;;;;5071440;28;20113;-32
2022/04/18 11:33:23;;;;;;;5.70;5.20;;;;;;;;;;5071106;28;20501;-31
2022/04/18 11:35:49;;;;;;;5.82;5.35;;;;;;;;;;5071446;28;20089;-33
2022/04/18 11:38:15;;;;;;;5.97;5.40;;;;;;;;;;5070493;28;20040;-31
2022/04/18 11:40:42;;;;;;;5.93;5.30;;;;;;;;;;5071562;28;20050;-32
2022/04/18 11:43:12;;;;;;;5.78;5.28;;;;;;;;;;5070799;28;20048;-33
2022/04/18 11:45:38;;;;;;;6.03;5.43;;;;;;;;;;5071088;28;20470;-30
2022/04/18 11:48:04;;;;;;;6.00;5.50;;;;;;;;;;5068850;28;20051;-32
2022/04/18 11:50:32;;;;;;;6.53;5.70;;;;;;;;;;5070570;28;20484;-33
2022/04/18 11:53:06;;;;;;;6.30;5.75;;;;;;;;;;5071279;28;20054;-32
2022/04/18 11:55:33;;;;;;;6.35;5.68;;;;;;;;;;5070927;28;20570;-30
2022/04/18 11:57:59;;;;;;;5.82;5.13;;;;;;;;;;5071073;28;20047;-31
2022/04/18 12:08:45;;;;;;;6.63;6.00;;;;;;;;;;5069094;28;20055;-32
2022/04/18 12:11:11;;;;;;;6.38;5.78;;;;;;;;;;5068617;28;20655;-33
2022/04/18 12:13:43;;;;;;;6.68;6.13;;;;;;;;;;5068332;28;20036;-33
2022/04/18 12:16:09;;;;;;;6.25;5.65;;;;;;;;;;5069291;28;20245;-31
2022/04/18 12:18:35;;;;;;;6.30;5.70;;;;;;;;;;5068968;28;20409;-34
2022/04/18 12:21:02;;;;;;;6.22;5.63;;;;;;;;;;5069411;28;20033;-32
2022/04/18 12:23:28;;;;;;;6.60;6.00;;;;;;;;;;5068273;28;20068;-36
2022/04/18 12:25:55;;;;;;;6.47;5.88;;;;;;;;;;5070812;28;20083;-32
2022/04/18 12:28:23;;;;;;;6.70;6.10;;;;;;;;;;5069490;28;20047;-32
2022/04/18 12:30:49;;;;;;;6.88;6.28;;;;;;;;;;5069549;28;20461;-32
2022/04/18 12:33:16;;;;;;;6.68;5.88;;;;;;;;;;5068984;28;20047;-33
2022/04/18 12:35:43;;;;;;;6.75;6.15;;;;;;;;;;5058171;28;20402;-32
2022/04/18 12:38:10;;;;;;;9.10;8.15;;;;;;;;;;5058805;28;20124;-31
2022/04/18 12:40:38;;;;;;;7.63;6.95;;;;;;;;;;5070257;28;20454;-32
2022/04/18 12:43:06;;;;;;;6.93;6.43;;;;;;;;;;5069637;28;20036;-32
2022/04/18 12:45:42;;;;;;;13.55;12.30;;;;;;;;;;5069340;28;20082;-34
2022/04/18 12:48:08;;;;;;;6.47;5.97;;;;;;;;;;5070102;28;20110;-31
2022/04/18 12:50:35;;;;;;;10.38;9.55;;;;;;;;;;5070209;28;20120;-34
2022/04/18 12:53:01;;;;;;;7.35;6.75;;;;;;;;;;5068906;28;20037;-32
2022/04/18 12:55:29;;;;;;;7.03;6.43;;;;;;;;;;5069857;28;20037;-33
2022/04/18 12:57:55;;;;;;;6.60;6.00;;;;;;;;;;5070241;28;20460;-32
2022/04/18 13:00:21;;;;;;;10.18;9.27;;;;;;;;;;5073539;28;20433;-33
2022/04/18 13:03:01;;;;;;;6.63;6.03;;;;;;;;;;5073747;28;20040;-32
2022/04/18 13:05:31;;;;;;;9.07;8.38;;;;;;;;;;5073916;28;20573;-36
2022/04/18 13:08:01;;;;;;;6.82;6.20;;;;;;;;;;5073549;28;20036;-32
2022/04/18 13:10:28;;;;;;;7.40;6.80;;;;;;;;;;5073634;28;20127;-32
2022/04/18 13:13:01;;;;;;;7.88;7.20;;;;;;;;;;5072639;28;20040;-32
2022/04/18 13:15:28;;;;;;;6.80;6.18;;;;;;;;;;5074245;28;20055;-29
2022/04/18 13:17:59;;;;;;;7.05;6.35;;;;;;;;;;5074312;28;20037;-34
2022/04/18 13:20:25;;;;;;;6.95;6.45;;;;;;;;;;5075109;28;20051;-34
2022/04/18 13:22:51;;;;;;;6.30;5.70;;;;;;;;;;5074139;28;20053;-32
2022/04/18 13:25:18;;;;;;;5.78;5.38;;;;;;;;;;5074468;28;20097;-32
2022/04/18 13:27:45;;;;;;;6.20;5.72;;;;;;;;;;5072591;28;20044;-32
2022/04/18 13:30:11;;;;;;;6.57;6.07;;;;;;;;;;5073692;28;20045;-32
2022/04/18 13:32:37;;;;;;;6.45;5.78;;;;;;;;;;5073504;28;20059;-32
2022/04/18 13:35:03;;;;;;;6.53;5.95;;;;;;;;;;5072665;28;20036;-32
2022/04/18 13:37:29;;;;;;;6.50;6.00;;;;;;;;;;5073251;28;20420;-33
2022/04/18 13:39:55;;;;;;;6.38;5.88;;;;;;;;;;5072878;28;20111;-35
2022/04/18 13:42:21;;;;;;;7.40;6.50;;;;;;;;;;5072726;28;20062;-33
2022/04/18 13:44:48;;;;;;;6.28;5.78;;;;;;;;;;5073125;28;20041;-32
2022/04/18 13:47:14;;;;;;;6.30;5.70;;;;;;;;;;5073993;28;20047;-34
2022/04/18 13:49:43;;;;;;;5.60;5.20;;;;;;;;;;5073569;28;20036;-32
2022/04/18 13:52:09;;;;;;;6.28;5.80;;;;;;;;;;5073036;28;20063;-34
2022/04/18 13:54:37;;;;;;;5.97;5.47;;;;;;;;;;5072844;28;20048;-32
2022/04/18 13:57:05;;;;;;;6.35;5.82;;;;;;;;;;5073081;28;20050;-32
2022/04/18 13:59:31;;;;;;;6.50;6.00;;;;;;;;;;5072852;28;20048;-33
2022/04/18 14:01:57;;;;;;;6.20;5.70;;;;;;;;;;5073469;28;20067;-35
2022/04/18 14:04:23;;;;;;;6.28;5.78;;;;;;;;;;5074197;28;20402;-33
2022/04/18 14:06:49;;;;;;;6.20;5.70;;;;;;;;;;5055422;28;20083;-35
2022/04/18 14:09:15;;;;;;;6.43;5.95;;;;;;;;;;5072845;28;20163;-34
2022/04/18 14:11:41;;;;;;;6.50;5.93;;;;;;;;;;5053578;28;20048;-32
2022/04/18 14:14:08;;;;;;;6.57;6.07;;;;;;;;;;5072707;28;20083;-33
2022/04/18 14:22:04;;;;;;;6.03;5.53;;;;;;;;;;5073184;28;20066;-33
2022/04/18 14:24:30;;;;;;;6.85;6.22;;;;;;;;;;5072183;28;20098;-32
2022/04/18 14:26:56;;;;;;;6.13;5.72;;;;;;;;;;5072720;28;20044;-35
2022/04/18 14:29:22;;;;;;;6.38;5.78;;;;;;;;;;5071847;28;20036;-32
2022/04/18 14:31:48;;;;;;;5.47;5.07;;;;;;;;;;5072478;28;20044;-32
2022/04/18 14:34:14;;;;;;;6.03;5.53;;;;;;;;;;5072220;28;20039;-33
2022/04/18 14:36:41;;;;;;;6.97;6.35;;;;;;;;;;5072309;28;20044;-32
2022/04/18 14:39:07;;;;;;;6.22;5.72;;;;;;;;;;5072158;28;20071;-34
2022/04/18 14:41:33;;;;;;;6.72;6.22;;;;;;;;;;5072256;28;20040;-34
2022/04/18 14:44:02;;;;;;;7.13;6.43;;;;;;;;;;5071717;28;20040;-32
2022/04/18 14:46:28;;;;;;;6.72;6.13;;;;;;;;;;5072715;28;20044;-31
2022/04/18 14:48:55;;;;;;;7.00;6.50;;;;;;;;;;5072349;28;20044;-33
2022/04/18 14:51:24;;;;;;;8.98;8.23;;;;;;;;;;5072161;28;20044;-31
2022/04/18 14:53:52;;;;;;;10.48;9.50;;;;;;;;;;5071624;28;20043;-33
2022/04/18 14:56:18;;;;;;;9.75;8.77;;;;;;;;;;5071201;28;20105;-32
2022/04/18 14:58:44;;;;;;;8.52;7.72;;;;;;;;;;5072081;28;20044;-33
2022/04/18 15:01:10;;;;;;;7.07;6.47;;;;;;;;;;5054054;28;20040;-34
2022/04/18 15:03:36;;;;;;;6.88;6.28;;;;;;;;;;5071843;28;20040;-33
2022/04/18 15:06:02;;;;;;;6.03;5.53;;;;;;;;;;5072126;28;20044;-35